sensor_id;sensor_type;location;lat;lon;timestamp;temperature;humidity
48752;DHT22;34544;48.836;9.174;2023-12-07T00:00:50;3.50;99.90
48752;DHT22;34544;48.836;9.174;2023-12-07T00:03:15;3.50;99.90
48752;DHT22;34544;48.836;9.174;2023-12-07T00:05:41;3.50;99.90
48752;DHT22;34544;48.836;9.174;2023-12-07T00:08:10;3.50;99.90
48752;DHT22;34544;48.836;9.174;2023-12-07T00:10:36;3.60;99.90
48752;DHT22;34544;48.836;9.174;2023-12-07T00:13:02;3.60;99.90
48752;DHT22;34544;48.836;9.174;2023-12-07T00:15:27;3.60;99.90
48752;DHT22;34544;48.836;9.174;2023-12-07T00:17:53;3.60;99.90
48752;DHT22;34544;48.836;9.174;2023-12-07T00:20:19;3.60;99.90
48752;DHT22;34544;48.836;9.174;2023-12-07T00:22:45;3.70;99.90
48752;DHT22;34544;48.836;9.174;2023-12-07T00:25:11;3.70;99.90
48752;DHT22;34544;48.836;9.174;2023-12-07T00:27:37;3.70;99.90
48752;DHT22;34544;48.836;9.174;2023-12-07T00:30:03;3.70;99.90
48752;DHT22;34544;48.836;9.174;2023-12-07T00:32:29;3.80;99.90
48752;DHT22;34544;48.836;9.174;2023-12-07T00:34:55;3.80;99.90
48752;DHT22;34544;48.836;9.174;2023-12-07T00:37:21;3.80;99.90
48752;DHT22;34544;48.836;9.174;2023-12-07T00:39:46;3.80;99.90
48752;DHT22;34544;48.836;9.174;2023-12-07T00:42:12;3.80;99.90
48752;DHT22;34544;48.836;9.174;2023-12-07T00:44:41;3.90;99.90
48752;DHT22;34544;48.836;9.174;2023-12-07T00:47:07;3.90;99.90
48752;DHT22;34544;48.836;9.174;2023-12-07T00:49:33;3.90;99.90
48752;DHT22;34544;48.836;9.174;2023-12-07T00:51:59;3.90;99.90
48752;DHT22;34544;48.836;9.174;2023-12-07T00:54:24;3.90;99.90
48752;DHT22;34544;48.836;9.174;2023-12-07T00:56:50;3.90;99.90
48752;DHT22;34544;48.836;9.174;2023-12-07T00:59:17;3.90;99.90
48752;DHT22;34544;48.836;9.174;2023-12-07T01:01:43;3.90;99.90
48752;DHT22;34544;48.836;9.174;2023-12-07T01:04:08;3.90;99.90
48752;DHT22;34544;48.836;9.174;2023-12-07T01:06:34;3.90;99.90
48752;DHT22;34544;48.836;9.174;2023-12-07T01:08:59;4.00;99.90
48752;DHT22;34544;48.836;9.174;2023-12-07T01:11:25;3.90;99.90
48752;DHT22;34544;48.836;9.174;2023-12-07T01:13:51;3.90;99.90
48752;DHT22;34544;48.836;9.174;2023-12-07T01:16:16;3.90;99.90
48752;DHT22;34544;48.836;9.174;2023-12-07T01:18:42;3.90;99.90
48752;DHT22;34544;48.836;9.174;2023-12-07T01:21:07;4.00;99.90
48752;DHT22;34544;48.836;9.174;2023-12-07T01:23:33;4.00;99.90
48752;DHT22;34544;48.836;9.174;2023-12-07T01:25:59;3.90;99.90
48752;DHT22;34544;48.836;9.174;2023-12-07T01:28:27;4.00;99.90
48752;DHT22;34544;48.836;9.174;2023-12-07T01:30:53;4.00;99.90
48752;DHT22;34544;48.836;9.174;2023-12-07T01:33:19;4.00;99.90
48752;DHT22;34544;48.836;9.174;2023-12-07T01:35:44;4.00;99.90
48752;DHT22;34544;48.836;9.174;2023-12-07T01:38:10;3.90;99.90
48752;DHT22;34544;48.836;9.174;2023-12-07T01:40:35;3.90;99.90
48752;DHT22;34544;48.836;9.174;2023-12-07T01:43:01;3.90;99.90
48752;DHT22;34544;48.836;9.174;2023-12-07T01:45:27;3.90;99.90
48752;DHT22;34544;48.836;9.174;2023-12-07T01:47:54;3.90;99.90
48752;DHT22;34544;48.836;9.174;2023-12-07T01:50:22;3.90;99.90
48752;DHT22;34544;48.836;9.174;2023-12-07T01:52:54;3.80;99.90
48752;DHT22;34544;48.836;9.174;2023-12-07T01:55:21;3.80;99.90
48752;DHT22;34544;48.836;9.174;2023-12-07T01:57:48;3.80;99.90
48752;DHT22;34544;48.836;9.174;2023-12-07T02:00:15;3.70;99.90
48752;DHT22;34544;48.836;9.174;2023-12-07T02:02:43;3.70;99.90
48752;DHT22;34544;48.836;9.174;2023-12-07T02:05:09;3.70;99.90
48752;DHT22;34544;48.836;9.174;2023-12-07T02:07:35;3.70;99.90
48752;DHT22;34544;48.836;9.174;2023-12-07T02:10:00;3.70;99.90
48752;DHT22;34544;48.836;9.174;2023-12-07T02:12:26;3.70;99.90
48752;DHT22;34544;48.836;9.174;2023-12-07T02:14:55;3.70;99.90
48752;DHT22;34544;48.836;9.174;2023-12-07T02:17:33;3.70;99.90
48752;DHT22;34544;48.836;9.174;2023-12-07T02:20:09;3.70;99.90
48752;DHT22;34544;48.836;9.174;2023-12-07T02:22:48;3.70;99.90
48752;DHT22;34544;48.836;9.174;2023-12-07T02:25:18;3.70;99.90
48752;DHT22;34544;48.836;9.174;2023-12-07T02:27:45;3.60;99.90
48752;DHT22;34544;48.836;9.174;2023-12-07T02:30:12;3.50;99.90
48752;DHT22;34544;48.836;9.174;2023-12-07T02:32:40;3.50;99.90
48752;DHT22;34544;48.836;9.174;2023-12-07T02:35:07;3.40;99.90
48752;DHT22;34544;48.836;9.174;2023-12-07T02:37:49;3.30;99.90
48752;DHT22;34544;48.836;9.174;2023-12-07T02:40:19;3.20;99.90
48752;DHT22;34544;48.836;9.174;2023-12-07T02:42:47;3.10;99.90
48752;DHT22;34544;48.836;9.174;2023-12-07T02:45:13;3.00;99.90
48752;DHT22;34544;48.836;9.174;2023-12-07T02:47:39;2.90;99.90
48752;DHT22;34544;48.836;9.174;2023-12-07T02:50:06;2.80;99.90
48752;DHT22;34544;48.836;9.174;2023-12-07T02:52:33;2.70;99.90
48752;DHT22;34544;48.836;9.174;2023-12-07T02:54:59;2.60;99.90
48752;DHT22;34544;48.836;9.174;2023-12-07T02:57:24;2.50;99.90
48752;DHT22;34544;48.836;9.174;2023-12-07T02:59:50;2.40;99.90
48752;DHT22;34544;48.836;9.174;2023-12-07T03:02:16;2.40;99.90
48752;DHT22;34544;48.836;9.174;2023-12-07T03:04:42;2.40;99.90
48752;DHT22;34544;48.836;9.174;2023-12-07T03:07:08;2.40;99.90
48752;DHT22;34544;48.836;9.174;2023-12-07T03:09:33;2.30;99.90
48752;DHT22;34544;48.836;9.174;2023-12-07T03:11:59;2.30;99.90
48752;DHT22;34544;48.836;9.174;2023-12-07T03:14:25;2.30;99.90
48752;DHT22;34544;48.836;9.174;2023-12-07T03:16:51;2.30;99.90
48752;DHT22;34544;48.836;9.174;2023-12-07T03:19:16;2.30;99.90
48752;DHT22;34544;48.836;9.174;2023-12-07T03:21:42;2.20;99.90
48752;DHT22;34544;48.836;9.174;2023-12-07T03:24:11;2.20;99.90
48752;DHT22;34544;48.836;9.174;2023-12-07T03:26:37;2.10;99.90
48752;DHT22;34544;48.836;9.174;2023-12-07T03:29:03;2.10;99.90
48752;DHT22;34544;48.836;9.174;2023-12-07T03:31:29;2.00;99.90
48752;DHT22;34544;48.836;9.174;2023-12-07T03:33:55;1.90;99.90
48752;DHT22;34544;48.836;9.174;2023-12-07T03:36:22;1.80;99.90
48752;DHT22;34544;48.836;9.174;2023-12-07T03:38:48;1.70;99.90
48752;DHT22;34544;48.836;9.174;2023-12-07T03:41:15;1.60;99.90
48752;DHT22;34544;48.836;9.174;2023-12-07T03:43:40;1.50;99.90
48752;DHT22;34544;48.836;9.174;2023-12-07T03:46:07;1.50;99.90
48752;DHT22;34544;48.836;9.174;2023-12-07T03:48:33;1.40;99.90
48752;DHT22;34544;48.836;9.174;2023-12-07T03:50:59;1.40;99.90
48752;DHT22;34544;48.836;9.174;2023-12-07T03:53:24;1.30;99.90
48752;DHT22;34544;48.836;9.174;2023-12-07T03:55:50;1.30;99.90
48752;DHT22;34544;48.836;9.174;2023-12-07T03:58:16;1.20;99.90
48752;DHT22;34544;48.836;9.174;2023-12-07T04:00:42;1.20;99.90
48752;DHT22;34544;48.836;9.174;2023-12-07T04:03:08;1.20;99.90
48752;DHT22;34544;48.836;9.174;2023-12-07T04:05:34;1.10;99.90
48752;DHT22;34544;48.836;9.174;2023-12-07T04:07:59;1.00;99.90
48752;DHT22;34544;48.836;9.174;2023-12-07T04:10:25;1.00;99.90
48752;DHT22;34544;48.836;9.174;2023-12-07T04:12:51;0.90;99.90
48752;DHT22;34544;48.836;9.174;2023-12-07T04:15:21;0.90;99.90
48752;DHT22;34544;48.836;9.174;2023-12-07T04:17:47;0.80;99.90
48752;DHT22;34544;48.836;9.174;2023-12-07T04:20:13;0.70;99.90
48752;DHT22;34544;48.836;9.174;2023-12-07T04:22:39;0.70;99.90
48752;DHT22;34544;48.836;9.174;2023-12-07T04:25:05;0.60;99.90
48752;DHT22;34544;48.836;9.174;2023-12-07T04:27:31;0.60;99.90
48752;DHT22;34544;48.836;9.174;2023-12-07T04:29:57;0.50;99.90
48752;DHT22;34544;48.836;9.174;2023-12-07T04:32:23;0.50;99.90
48752;DHT22;34544;48.836;9.174;2023-12-07T04:34:49;0.40;99.90
48752;DHT22;34544;48.836;9.174;2023-12-07T04:37:15;0.40;99.90
48752;DHT22;34544;48.836;9.174;2023-12-07T04:39:41;0.40;99.90
48752;DHT22;34544;48.836;9.174;2023-12-07T04:42:06;0.30;99.90
48752;DHT22;34544;48.836;9.174;2023-12-07T04:44:32;0.30;99.90
48752;DHT22;34544;48.836;9.174;2023-12-07T04:46:58;0.30;99.90
48752;DHT22;34544;48.836;9.174;2023-12-07T04:49:23;0.20;99.90
48752;DHT22;34544;48.836;9.174;2023-12-07T04:51:49;0.20;99.90
48752;DHT22;34544;48.836;9.174;2023-12-07T04:54:14;0.20;99.90
48752;DHT22;34544;48.836;9.174;2023-12-07T04:56:41;0.20;99.90
48752;DHT22;34544;48.836;9.174;2023-12-07T04:59:07;0.10;99.90
48752;DHT22;34544;48.836;9.174;2023-12-07T05:01:38;0.10;99.90
48752;DHT22;34544;48.836;9.174;2023-12-07T05:04:04;0.10;99.90
48752;DHT22;34544;48.836;9.174;2023-12-07T05:06:34;0.00;99.90
48752;DHT22;34544;48.836;9.174;2023-12-07T05:09:01;0.00;99.90
48752;DHT22;34544;48.836;9.174;2023-12-07T05:11:26;0.00;99.90
48752;DHT22;34544;48.836;9.174;2023-12-07T05:13:52;0.00;99.90
48752;DHT22;34544;48.836;9.174;2023-12-07T05:16:18;-0.10;99.90
48752;DHT22;34544;48.836;9.174;2023-12-07T05:18:43;-0.10;99.90
48752;DHT22;34544;48.836;9.174;2023-12-07T05:21:09;-0.10;99.90
48752;DHT22;34544;48.836;9.174;2023-12-07T05:23:35;-0.10;99.90
48752;DHT22;34544;48.836;9.174;2023-12-07T05:26:00;-0.10;99.90
48752;DHT22;34544;48.836;9.174;2023-12-07T05:28:26;-0.10;99.90
48752;DHT22;34544;48.836;9.174;2023-12-07T05:30:53;-0.10;99.90
48752;DHT22;34544;48.836;9.174;2023-12-07T05:33:19;-0.20;99.90
48752;DHT22;34544;48.836;9.174;2023-12-07T05:35:47;-0.20;99.90
48752;DHT22;34544;48.836;9.174;2023-12-07T05:38:13;-0.20;99.90
48752;DHT22;34544;48.836;9.174;2023-12-07T05:40:39;-0.20;99.90
48752;DHT22;34544;48.836;9.174;2023-12-07T05:43:04;-0.20;99.90
48752;DHT22;34544;48.836;9.174;2023-12-07T05:45:30;-0.20;99.90
48752;DHT22;34544;48.836;9.174;2023-12-07T05:47:56;-0.20;99.90
48752;DHT22;34544;48.836;9.174;2023-12-07T05:50:22;-0.20;99.90
48752;DHT22;34544;48.836;9.174;2023-12-07T05:52:48;-0.30;99.90
48752;DHT22;34544;48.836;9.174;2023-12-07T05:55:13;-0.30;99.90
48752;DHT22;34544;48.836;9.174;2023-12-07T05:57:39;-0.30;99.90
48752;DHT22;34544;48.836;9.174;2023-12-07T06:00:06;-0.30;99.90
48752;DHT22;34544;48.836;9.174;2023-12-07T06:02:39;-0.40;99.90
48752;DHT22;34544;48.836;9.174;2023-12-07T06:05:06;-0.40;99.90
48752;DHT22;34544;48.836;9.174;2023-12-07T06:07:32;-0.40;99.90
48752;DHT22;34544;48.836;9.174;2023-12-07T06:09:58;-0.40;99.90
48752;DHT22;34544;48.836;9.174;2023-12-07T06:12:24;-0.40;99.90
48752;DHT22;34544;48.836;9.174;2023-12-07T06:14:49;-0.40;99.90
48752;DHT22;34544;48.836;9.174;2023-12-07T06:17:16;-0.50;99.90
48752;DHT22;34544;48.836;9.174;2023-12-07T06:19:42;-0.50;99.90
48752;DHT22;34544;48.836;9.174;2023-12-07T06:22:08;-0.50;99.90
48752;DHT22;34544;48.836;9.174;2023-12-07T06:24:34;-0.50;99.90
48752;DHT22;34544;48.836;9.174;2023-12-07T06:27:02;-0.50;99.90
48752;DHT22;34544;48.836;9.174;2023-12-07T06:29:28;-0.50;99.90
48752;DHT22;34544;48.836;9.174;2023-12-07T06:31:55;-0.50;99.90
48752;DHT22;34544;48.836;9.174;2023-12-07T06:34:20;-0.50;99.90
48752;DHT22;34544;48.836;9.174;2023-12-07T06:36:46;-0.60;99.90
48752;DHT22;34544;48.836;9.174;2023-12-07T06:39:13;-0.60;99.90
48752;DHT22;34544;48.836;9.174;2023-12-07T06:41:39;-0.60;99.90
48752;DHT22;34544;48.836;9.174;2023-12-07T06:44:05;-0.60;99.90
48752;DHT22;34544;48.836;9.174;2023-12-07T06:46:31;-0.60;99.90
48752;DHT22;34544;48.836;9.174;2023-12-07T06:48:57;-0.60;99.90
48752;DHT22;34544;48.836;9.174;2023-12-07T06:51:22;-0.60;99.90
48752;DHT22;34544;48.836;9.174;2023-12-07T06:53:48;-0.60;99.90
48752;DHT22;34544;48.836;9.174;2023-12-07T06:56:14;-0.60;99.90
48752;DHT22;34544;48.836;9.174;2023-12-07T06:58:40;-0.60;99.90
48752;DHT22;34544;48.836;9.174;2023-12-07T07:01:06;-0.60;99.90
48752;DHT22;34544;48.836;9.174;2023-12-07T07:03:32;-0.60;99.90
48752;DHT22;34544;48.836;9.174;2023-12-07T07:05:57;-0.60;99.90
48752;DHT22;34544;48.836;9.174;2023-12-07T07:08:25;-0.70;99.90
48752;DHT22;34544;48.836;9.174;2023-12-07T07:10:51;-0.60;99.90
48752;DHT22;34544;48.836;9.174;2023-12-07T07:13:16;-0.60;99.90
48752;DHT22;34544;48.836;9.174;2023-12-07T07:15:43;-0.60;99.90
48752;DHT22;34544;48.836;9.174;2023-12-07T07:18:09;-0.60;99.90
48752;DHT22;34544;48.836;9.174;2023-12-07T07:20:35;-0.50;99.90
48752;DHT22;34544;48.836;9.174;2023-12-07T07:23:00;-0.60;99.90
48752;DHT22;34544;48.836;9.174;2023-12-07T07:25:26;-0.50;99.90
48752;DHT22;34544;48.836;9.174;2023-12-07T07:27:51;-0.50;99.90
48752;DHT22;34544;48.836;9.174;2023-12-07T07:30:18;-0.50;99.90
48752;DHT22;34544;48.836;9.174;2023-12-07T07:32:43;-0.50;99.90
48752;DHT22;34544;48.836;9.174;2023-12-07T07:35:09;-0.50;99.90
48752;DHT22;34544;48.836;9.174;2023-12-07T07:37:38;-0.40;99.90
48752;DHT22;34544;48.836;9.174;2023-12-07T07:40:04;-0.40;99.90
48752;DHT22;34544;48.836;9.174;2023-12-07T07:42:33;-0.40;99.90
48752;DHT22;34544;48.836;9.174;2023-12-07T07:44:58;-0.40;99.90
48752;DHT22;34544;48.836;9.174;2023-12-07T07:47:24;-0.40;99.90
48752;DHT22;34544;48.836;9.174;2023-12-07T07:49:50;-0.30;99.90
48752;DHT22;34544;48.836;9.174;2023-12-07T07:52:16;-0.30;99.90
48752;DHT22;34544;48.836;9.174;2023-12-07T07:54:42;-0.20;99.90
48752;DHT22;34544;48.836;9.174;2023-12-07T07:57:08;-0.10;99.90
48752;DHT22;34544;48.836;9.174;2023-12-07T07:59:33;-0.10;99.90
48752;DHT22;34544;48.836;9.174;2023-12-07T08:01:59;-0.10;99.90
48752;DHT22;34544;48.836;9.174;2023-12-07T08:04:25;0.00;99.90
48752;DHT22;34544;48.836;9.174;2023-12-07T08:06:51;0.00;99.90
48752;DHT22;34544;48.836;9.174;2023-12-07T08:09:16;0.10;99.90
48752;DHT22;34544;48.836;9.174;2023-12-07T08:11:42;0.10;99.90
48752;DHT22;34544;48.836;9.174;2023-12-07T08:14:08;0.10;99.90
48752;DHT22;34544;48.836;9.174;2023-12-07T08:16:34;0.20;99.90
48752;DHT22;34544;48.836;9.174;2023-12-07T08:19:00;0.30;99.90
48752;DHT22;34544;48.836;9.174;2023-12-07T08:21:25;0.30;99.90
48752;DHT22;34544;48.836;9.174;2023-12-07T08:23:51;0.40;99.90
48752;DHT22;34544;48.836;9.174;2023-12-07T08:26:17;0.50;99.90
48752;DHT22;34544;48.836;9.174;2023-12-07T08:28:44;0.50;99.90
48752;DHT22;34544;48.836;9.174;2023-12-07T08:31:10;0.60;99.90
48752;DHT22;34544;48.836;9.174;2023-12-07T08:33:36;0.70;99.90
48752;DHT22;34544;48.836;9.174;2023-12-07T08:36:05;0.80;99.90
48752;DHT22;34544;48.836;9.174;2023-12-07T08:38:32;0.90;99.90
48752;DHT22;34544;48.836;9.174;2023-12-07T08:40:57;1.10;99.90
48752;DHT22;34544;48.836;9.174;2023-12-07T08:43:24;1.40;99.90
48752;DHT22;34544;48.836;9.174;2023-12-07T08:45:50;1.80;99.90
48752;DHT22;34544;48.836;9.174;2023-12-07T08:48:19;2.30;99.90
48752;DHT22;34544;48.836;9.174;2023-12-07T08:50:44;2.80;99.90
48752;DHT22;34544;48.836;9.174;2023-12-07T08:53:10;3.40;99.90
48752;DHT22;34544;48.836;9.174;2023-12-07T08:55:36;4.00;99.90
48752;DHT22;34544;48.836;9.174;2023-12-07T08:58:02;4.70;99.90
48752;DHT22;34544;48.836;9.174;2023-12-07T09:00:31;5.30;99.90
48752;DHT22;34544;48.836;9.174;2023-12-07T09:02:57;5.90;99.90
48752;DHT22;34544;48.836;9.174;2023-12-07T09:05:23;6.30;99.90
48752;DHT22;34544;48.836;9.174;2023-12-07T09:07:48;6.80;99.90
48752;DHT22;34544;48.836;9.174;2023-12-07T09:10:14;7.30;99.90
48752;DHT22;34544;48.836;9.174;2023-12-07T09:12:40;7.70;99.90
48752;DHT22;34544;48.836;9.174;2023-12-07T09:15:06;8.10;99.90
48752;DHT22;34544;48.836;9.174;2023-12-07T09:17:36;8.70;99.90
48752;DHT22;34544;48.836;9.174;2023-12-07T09:20:04;9.20;99.90
48752;DHT22;34544;48.836;9.174;2023-12-07T09:22:30;9.70;99.90
48752;DHT22;34544;48.836;9.174;2023-12-07T09:24:56;10.20;99.90
48752;DHT22;34544;48.836;9.174;2023-12-07T09:27:22;10.60;99.90
48752;DHT22;34544;48.836;9.174;2023-12-07T09:29:48;10.90;99.90
48752;DHT22;34544;48.836;9.174;2023-12-07T09:32:14;11.20;99.90
48752;DHT22;34544;48.836;9.174;2023-12-07T09:34:40;11.50;99.90
48752;DHT22;34544;48.836;9.174;2023-12-07T09:37:07;11.50;99.90
48752;DHT22;34544;48.836;9.174;2023-12-07T09:39:32;11.30;99.90
48752;DHT22;34544;48.836;9.174;2023-12-07T09:41:58;11.30;99.90
48752;DHT22;34544;48.836;9.174;2023-12-07T09:44:24;11.40;99.90
48752;DHT22;34544;48.836;9.174;2023-12-07T09:46:49;11.30;99.90
48752;DHT22;34544;48.836;9.174;2023-12-07T09:49:16;11.20;99.90
48752;DHT22;34544;48.836;9.174;2023-12-07T09:51:43;11.10;99.90
48752;DHT22;34544;48.836;9.174;2023-12-07T09:54:09;11.30;99.90
48752;DHT22;34544;48.836;9.174;2023-12-07T09:56:36;11.30;99.90
48752;DHT22;34544;48.836;9.174;2023-12-07T09:59:02;11.40;99.90
48752;DHT22;34544;48.836;9.174;2023-12-07T10:01:28;11.40;99.90
48752;DHT22;34544;48.836;9.174;2023-12-07T10:04:14;11.40;99.90
48752;DHT22;34544;48.836;9.174;2023-12-07T10:06:43;11.30;99.90
48752;DHT22;34544;48.836;9.174;2023-12-07T10:09:16;11.30;99.90
48752;DHT22;34544;48.836;9.174;2023-12-07T10:11:44;11.10;99.90
48752;DHT22;34544;48.836;9.174;2023-12-07T10:14:10;11.00;99.90
48752;DHT22;34544;48.836;9.174;2023-12-07T10:16:37;11.10;99.90
48752;DHT22;34544;48.836;9.174;2023-12-07T10:19:16;11.20;99.90
48752;DHT22;34544;48.836;9.174;2023-12-07T10:21:44;11.40;99.90
48752;DHT22;34544;48.836;9.174;2023-12-07T10:24:11;11.80;99.90
48752;DHT22;34544;48.836;9.174;2023-12-07T10:26:38;12.00;99.90
48752;DHT22;34544;48.836;9.174;2023-12-07T10:29:07;12.00;99.90
48752;DHT22;34544;48.836;9.174;2023-12-07T10:31:33;11.90;99.90
48752;DHT22;34544;48.836;9.174;2023-12-07T10:33:59;11.80;99.90
48752;DHT22;34544;48.836;9.174;2023-12-07T10:36:26;12.00;99.90
48752;DHT22;34544;48.836;9.174;2023-12-07T10:38:53;12.50;99.90
48752;DHT22;34544;48.836;9.174;2023-12-07T10:41:20;12.80;99.90
48752;DHT22;34544;48.836;9.174;2023-12-07T10:44:04;13.00;99.90
48752;DHT22;34544;48.836;9.174;2023-12-07T10:46:32;13.10;99.90
48752;DHT22;34544;48.836;9.174;2023-12-07T10:49:01;13.40;99.90
48752;DHT22;34544;48.836;9.174;2023-12-07T10:51:50;13.70;99.90
48752;DHT22;34544;48.836;9.174;2023-12-07T10:54:20;14.20;99.90
48752;DHT22;34544;48.836;9.174;2023-12-07T10:56:48;14.40;99.90
48752;DHT22;34544;48.836;9.174;2023-12-07T10:59:16;14.60;99.90
48752;DHT22;34544;48.836;9.174;2023-12-07T11:01:43;14.70;99.90
48752;DHT22;34544;48.836;9.174;2023-12-07T11:04:13;15.00;99.40
48752;DHT22;34544;48.836;9.174;2023-12-07T11:06:46;15.50;99.30
48752;DHT22;34544;48.836;9.174;2023-12-07T11:09:18;16.00;97.60
48752;DHT22;34544;48.836;9.174;2023-12-07T11:14:22;15.80;96.10
48752;DHT22;34544;48.836;9.174;2023-12-07T11:16:47;16.00;95.80
48752;DHT22;34544;48.836;9.174;2023-12-07T11:22:10;16.20;94.90
48752;DHT22;34544;48.836;9.174;2023-12-07T11:24:36;16.10;93.90
48752;DHT22;34544;48.836;9.174;2023-12-07T11:27:02;15.60;93.40
48752;DHT22;34544;48.836;9.174;2023-12-07T11:29:29;15.00;94.50
48752;DHT22;34544;48.836;9.174;2023-12-07T11:32:07;14.70;96.20
48752;DHT22;34544;48.836;9.174;2023-12-07T11:34:41;14.90;95.90
48752;DHT22;34544;48.836;9.174;2023-12-07T11:37:11;15.20;94.60
48752;DHT22;34544;48.836;9.174;2023-12-07T11:39:41;15.50;94.60
48752;DHT22;34544;48.836;9.174;2023-12-07T11:42:11;15.80;93.10
48752;DHT22;34544;48.836;9.174;2023-12-07T11:44:38;15.90;93.10
48752;DHT22;34544;48.836;9.174;2023-12-07T11:47:04;15.60;92.30
48752;DHT22;34544;48.836;9.174;2023-12-07T11:49:31;15.60;92.40
48752;DHT22;34544;48.836;9.174;2023-12-07T11:52:00;15.60;92.60
48752;DHT22;34544;48.836;9.174;2023-12-07T11:54:27;15.40;91.60
48752;DHT22;34544;48.836;9.174;2023-12-07T11:56:54;15.10;91.40
48752;DHT22;34544;48.836;9.174;2023-12-07T11:59:20;14.80;92.30
48752;DHT22;34544;48.836;9.174;2023-12-07T12:01:49;14.90;92.70
48752;DHT22;34544;48.836;9.174;2023-12-07T12:04:18;15.00;92.00
48752;DHT22;34544;48.836;9.174;2023-12-07T12:06:44;15.10;91.50
48752;DHT22;34544;48.836;9.174;2023-12-07T12:09:14;14.80;91.70
48752;DHT22;34544;48.836;9.174;2023-12-07T12:11:47;14.20;92.10
48752;DHT22;34544;48.836;9.174;2023-12-07T12:14:14;13.40;92.60
48752;DHT22;34544;48.836;9.174;2023-12-07T12:16:42;12.80;93.60
48752;DHT22;34544;48.836;9.174;2023-12-07T12:19:08;12.10;93.40
48752;DHT22;34544;48.836;9.174;2023-12-07T12:21:35;11.60;94.30
48752;DHT22;34544;48.836;9.174;2023-12-07T12:24:07;11.30;95.10
48752;DHT22;34544;48.836;9.174;2023-12-07T12:26:34;10.90;95.40
48752;DHT22;34544;48.836;9.174;2023-12-07T12:29:01;10.50;97.00
48752;DHT22;34544;48.836;9.174;2023-12-07T12:31:28;10.10;97.40
48752;DHT22;34544;48.836;9.174;2023-12-07T12:33:54;9.70;97.70
48752;DHT22;34544;48.836;9.174;2023-12-07T12:36:20;9.20;98.80
48752;DHT22;34544;48.836;9.174;2023-12-07T12:38:51;8.70;99.90
48752;DHT22;34544;48.836;9.174;2023-12-07T12:41:21;8.30;99.90
48752;DHT22;34544;48.836;9.174;2023-12-07T12:43:47;8.00;99.90
48752;DHT22;34544;48.836;9.174;2023-12-07T12:46:14;7.70;99.90
48752;DHT22;34544;48.836;9.174;2023-12-07T12:48:59;7.50;99.90
48752;DHT22;34544;48.836;9.174;2023-12-07T12:51:29;7.20;99.90
48752;DHT22;34544;48.836;9.174;2023-12-07T12:53:59;7.00;99.90
48752;DHT22;34544;48.836;9.174;2023-12-07T12:56:26;6.90;99.90
48752;DHT22;34544;48.836;9.174;2023-12-07T12:58:53;6.80;99.90
48752;DHT22;34544;48.836;9.174;2023-12-07T13:01:21;6.70;99.90
48752;DHT22;34544;48.836;9.174;2023-12-07T13:03:47;6.70;99.90
48752;DHT22;34544;48.836;9.174;2023-12-07T13:06:14;6.60;99.90
48752;DHT22;34544;48.836;9.174;2023-12-07T13:08:44;6.60;99.90
48752;DHT22;34544;48.836;9.174;2023-12-07T13:11:15;6.50;99.90
48752;DHT22;34544;48.836;9.174;2023-12-07T13:13:41;6.50;99.90
48752;DHT22;34544;48.836;9.174;2023-12-07T13:16:07;6.40;99.90
48752;DHT22;34544;48.836;9.174;2023-12-07T13:18:32;6.40;99.90
48752;DHT22;34544;48.836;9.174;2023-12-07T13:20:58;6.30;99.90
48752;DHT22;34544;48.836;9.174;2023-12-07T13:23:25;6.30;99.90
48752;DHT22;34544;48.836;9.174;2023-12-07T13:25:51;6.20;99.90
48752;DHT22;34544;48.836;9.174;2023-12-07T13:28:17;6.20;99.90
48752;DHT22;34544;48.836;9.174;2023-12-07T13:30:43;6.20;99.90
48752;DHT22;34544;48.836;9.174;2023-12-07T13:33:09;6.10;99.90
48752;DHT22;34544;48.836;9.174;2023-12-07T13:35:35;6.10;99.90
48752;DHT22;34544;48.836;9.174;2023-12-07T13:38:01;6.00;99.90
48752;DHT22;34544;48.836;9.174;2023-12-07T13:40:26;6.00;99.90
48752;DHT22;34544;48.836;9.174;2023-12-07T13:42:53;6.00;99.90
48752;DHT22;34544;48.836;9.174;2023-12-07T13:45:18;6.00;99.90
48752;DHT22;34544;48.836;9.174;2023-12-07T13:47:45;6.00;99.90
48752;DHT22;34544;48.836;9.174;2023-12-07T13:50:11;6.00;99.90
48752;DHT22;34544;48.836;9.174;2023-12-07T13:52:38;6.00;99.90
48752;DHT22;34544;48.836;9.174;2023-12-07T13:55:04;6.10;99.90
48752;DHT22;34544;48.836;9.174;2023-12-07T13:57:30;6.10;99.90
48752;DHT22;34544;48.836;9.174;2023-12-07T13:59:55;6.10;99.90
48752;DHT22;34544;48.836;9.174;2023-12-07T14:02:22;6.10;99.90
48752;DHT22;34544;48.836;9.174;2023-12-07T14:04:48;6.10;99.90
48752;DHT22;34544;48.836;9.174;2023-12-07T14:07:21;6.10;99.90
48752;DHT22;34544;48.836;9.174;2023-12-07T14:09:50;6.10;99.90
48752;DHT22;34544;48.836;9.174;2023-12-07T14:12:16;6.10;99.90
48752;DHT22;34544;48.836;9.174;2023-12-07T14:14:43;6.10;99.90
48752;DHT22;34544;48.836;9.174;2023-12-07T14:17:10;6.20;99.90
48752;DHT22;34544;48.836;9.174;2023-12-07T14:19:36;6.20;99.90
48752;DHT22;34544;48.836;9.174;2023-12-07T14:22:02;6.10;99.90
48752;DHT22;34544;48.836;9.174;2023-12-07T14:24:28;6.10;99.90
48752;DHT22;34544;48.836;9.174;2023-12-07T14:26:56;6.10;99.90
48752;DHT22;34544;48.836;9.174;2023-12-07T14:29:22;6.00;99.90
48752;DHT22;34544;48.836;9.174;2023-12-07T14:31:50;6.00;99.90
48752;DHT22;34544;48.836;9.174;2023-12-07T14:34:17;6.00;99.90
48752;DHT22;34544;48.836;9.174;2023-12-07T14:36:43;5.90;99.90
48752;DHT22;34544;48.836;9.174;2023-12-07T14:39:13;5.80;99.90
48752;DHT22;34544;48.836;9.174;2023-12-07T14:41:43;5.80;99.90
48752;DHT22;34544;48.836;9.174;2023-12-07T14:44:10;5.70;99.90
48752;DHT22;34544;48.836;9.174;2023-12-07T14:46:35;5.70;99.90
48752;DHT22;34544;48.836;9.174;2023-12-07T14:49:01;5.60;99.90
48752;DHT22;34544;48.836;9.174;2023-12-07T14:51:28;5.60;99.90
48752;DHT22;34544;48.836;9.174;2023-12-07T14:53:54;5.50;99.90
48752;DHT22;34544;48.836;9.174;2023-12-07T14:56:20;5.50;99.90
48752;DHT22;34544;48.836;9.174;2023-12-07T14:58:48;5.40;99.90
48752;DHT22;34544;48.836;9.174;2023-12-07T15:01:13;5.30;99.90
48752;DHT22;34544;48.836;9.174;2023-12-07T15:03:40;5.30;99.90
48752;DHT22;34544;48.836;9.174;2023-12-07T15:06:05;5.20;99.90
48752;DHT22;34544;48.836;9.174;2023-12-07T15:08:31;5.10;99.90
48752;DHT22;34544;48.836;9.174;2023-12-07T15:10:57;5.10;99.90
48752;DHT22;34544;48.836;9.174;2023-12-07T15:13:22;5.00;99.90
48752;DHT22;34544;48.836;9.174;2023-12-07T15:15:48;4.90;99.90
48752;DHT22;34544;48.836;9.174;2023-12-07T15:18:13;4.80;99.90
48752;DHT22;34544;48.836;9.174;2023-12-07T15:20:39;4.80;99.90
48752;DHT22;34544;48.836;9.174;2023-12-07T15:23:04;4.80;99.90
48752;DHT22;34544;48.836;9.174;2023-12-07T15:25:31;4.70;99.90
48752;DHT22;34544;48.836;9.174;2023-12-07T15:27:56;4.60;99.90
48752;DHT22;34544;48.836;9.174;2023-12-07T15:30:23;4.60;99.90
48752;DHT22;34544;48.836;9.174;2023-12-07T15:32:52;4.50;99.90
48752;DHT22;34544;48.836;9.174;2023-12-07T15:35:17;4.40;99.90
48752;DHT22;34544;48.836;9.174;2023-12-07T15:37:43;4.40;99.90
48752;DHT22;34544;48.836;9.174;2023-12-07T15:40:10;4.40;99.90
48752;DHT22;34544;48.836;9.174;2023-12-07T15:42:39;4.30;99.90